createdAt,value
2022-09-16T00:02:40.069Z,100.00
2022-09-16T00:05:51.436Z,100.00
2022-09-16T00:09:02.293Z,100.00
2022-09-16T00:12:11.269Z,100.00
2022-09-16T00:15:20.746Z,100.00
2022-09-16T00:18:29.951Z,100.00
2022-09-16T00:21:39.463Z,100.00
2022-09-16T00:24:51.460Z,100.00
2022-09-16T00:28:00.438Z,100.00
2022-09-16T00:31:09.440Z,100.00
2022-09-16T00:34:18.480Z,100.00
2022-09-16T00:37:27.476Z,100.00
2022-09-16T00:40:45.670Z,100.00
2022-09-16T00:43:57.705Z,100.00
2022-09-16T00:47:06.972Z,100.00
2022-09-16T00:50:18.909Z,100.00
2022-09-16T00:53:30.295Z,100.00
2022-09-16T00:56:43.153Z,100.00
2022-09-16T00:59:54.862Z,100.00
2022-09-16T01:03:03.797Z,100.00
2022-09-16T01:06:14.142Z,100.00
2022-09-16T01:09:25.787Z,100.00
2022-09-16T01:12:36.398Z,100.00
2022-09-16T01:15:46.299Z,100.00
2022-09-16T01:19:01.016Z,100.00
2022-09-16T01:22:21.068Z,100.00
2022-09-16T01:25:38.605Z,100.00
2022-09-16T01:29:24.021Z,100.00
2022-09-16T01:32:41.114Z,100.00
2022-09-16T01:36:02.168Z,100.00
2022-09-16T01:39:20.099Z,100.00
2022-09-16T01:42:36.120Z,100.00
2022-09-16T01:45:50.288Z,100.00
2022-09-16T01:49:02.785Z,100.00
2022-09-16T01:52:18.936Z,100.00
2022-09-16T01:55:32.932Z,100.00
2022-09-16T01:58:44.886Z,100.00
2022-09-16T02:01:57.739Z,100.00
2022-09-16T02:05:13.180Z,100.00
2022-09-16T02:08:25.292Z,100.00
2022-09-16T02:11:35.550Z,100.00
2022-09-16T02:14:46.156Z,100.00
2022-09-16T02:17:59.146Z,100.00
2022-09-16T02:21:14.682Z,100.00
2022-09-16T02:24:24.580Z,100.00
2022-09-16T02:27:36.673Z,100.00
2022-09-16T02:30:49.451Z,100.00
2022-09-16T02:34:01.917Z,100.00
2022-09-16T02:37:16.584Z,100.00
2022-09-16T02:40:27.800Z,100.00
2022-09-16T02:43:36.832Z,100.00
2022-09-16T02:46:52.708Z,100.00
2022-09-16T02:50:03.528Z,100.00
2022-09-16T02:53:21.374Z,100.00
2022-09-16T02:56:32.677Z,100.00
2022-09-16T02:59:42.051Z,100.00
2022-09-16T03:02:51.194Z,100.00
2022-09-16T03:06:19.658Z,100.00
2022-09-16T03:09:30.220Z,100.00
2022-09-16T03:12:49.747Z,100.00
2022-09-16T03:16:04.002Z,100.00
2022-09-16T03:19:17.665Z,100.00
2022-09-16T03:22:34.205Z,100.00
2022-09-16T03:25:50.818Z,100.00
2022-09-16T03:29:06.270Z,100.00
2022-09-16T03:32:21.165Z,100.00
2022-09-16T03:35:33.066Z,100.00
2022-09-16T03:38:42.601Z,100.00
2022-09-16T03:41:52.995Z,100.00
2022-09-16T03:45:02.016Z,100.00
2022-09-16T03:48:11.509Z,100.00
2022-09-16T03:51:20.545Z,100.00
2022-09-16T03:54:29.726Z,100.00
2022-09-16T03:57:40.231Z,100.00
2022-09-16T04:00:51.880Z,100.00
2022-09-16T04:04:00.924Z,100.00
2022-09-16T04:07:09.818Z,100.00
2022-09-16T04:10:19.084Z,100.00
2022-09-16T04:13:30.539Z,100.00
2022-09-16T04:16:43.007Z,100.00
2022-09-16T04:19:54.240Z,100.00
2022-09-16T04:23:03.212Z,100.00
2022-09-16T04:26:12.440Z,100.00
2022-09-16T04:29:22.823Z,100.00
2022-09-16T04:32:31.806Z,100.00
2022-09-16T04:35:40.816Z,100.00
2022-09-16T04:38:50.793Z,100.00
2022-09-16T04:42:01.226Z,100.00
2022-09-16T04:45:12.194Z,100.00
2022-09-16T04:48:21.240Z,100.00
2022-09-16T04:51:32.331Z,100.00
2022-09-16T04:54:41.272Z,100.00
2022-09-16T04:57:50.534Z,100.00
2022-09-16T05:01:07.179Z,100.00
2022-09-16T05:04:16.317Z,100.00
2022-09-16T05:07:25.813Z,100.00
2022-09-16T05:10:35.632Z,100.00
2022-09-16T05:13:44.800Z,100.00
2022-09-16T05:16:55.223Z,100.00
2022-09-16T05:20:04.749Z,100.00
2022-09-16T05:23:13.907Z,100.00
2022-09-16T05:26:25.053Z,100.00
2022-09-16T05:29:33.919Z,100.00
2022-09-16T05:32:44.183Z,100.00
2022-09-16T05:35:53.116Z,100.00
2022-09-16T05:42:32.545Z,100.00
2022-09-16T05:45:41.541Z,100.00
2022-09-16T05:48:52.357Z,100.00
2022-09-16T05:52:01.386Z,100.00
2022-09-16T05:55:10.651Z,100.00
2022-09-16T05:58:19.681Z,100.00
2022-09-16T06:01:31.318Z,100.00
2022-09-16T06:04:42.634Z,100.00
2022-09-16T06:07:57.800Z,100.00
2022-09-16T06:11:09.285Z,100.00
2022-09-16T06:14:19.032Z,100.00
2022-09-16T06:17:28.022Z,100.00
2022-09-16T06:20:39.411Z,100.00
2022-09-16T06:23:48.363Z,100.00
2022-09-16T06:26:57.359Z,100.00
2022-09-16T06:30:07.103Z,100.00
2022-09-16T06:33:17.080Z,100.00
2022-09-16T06:36:28.942Z,100.00
2022-09-16T06:39:37.873Z,100.00
2022-09-16T06:42:46.862Z,100.00
2022-09-16T06:45:59.603Z,100.00
2022-09-16T06:49:11.121Z,100.00
2022-09-16T06:52:21.676Z,100.00
2022-09-16T06:55:32.866Z,100.00
2022-09-16T06:58:44.068Z,100.00
2022-09-16T07:01:53.196Z,100.00
2022-09-16T07:05:02.780Z,100.00
2022-09-16T07:08:13.097Z,100.00
2022-09-16T07:11:23.124Z,100.00
2022-09-16T07:14:32.709Z,100.00
2022-09-16T07:17:41.577Z,100.00
2022-09-16T07:20:50.441Z,100.00
2022-09-16T07:24:02.648Z,100.00
2022-09-16T07:27:11.578Z,100.00
2022-09-16T07:30:20.563Z,100.00
2022-09-16T07:33:29.694Z,100.00
2022-09-16T07:36:40.121Z,100.00
2022-09-16T07:39:50.624Z,100.00
2022-09-16T07:42:59.603Z,100.00
2022-09-16T07:46:10.634Z,100.00
2022-09-16T07:49:19.865Z,100.00
2022-09-16T07:52:30.524Z,100.00
2022-09-16T07:55:42.105Z,100.00
2022-09-16T07:58:51.002Z,100.00
2022-09-16T08:02:00.079Z,100.00
2022-09-16T08:05:10.098Z,100.00
2022-09-16T08:08:21.937Z,100.00
2022-09-16T08:11:32.743Z,95.19
2022-09-16T08:14:41.979Z,100.00
2022-09-16T08:17:50.991Z,100.00
2022-09-16T08:21:01.447Z,100.00
2022-09-16T08:24:11.282Z,100.00
2022-09-16T08:27:22.731Z,100.00
2022-09-16T08:30:31.945Z,91.35
2022-09-16T08:33:41.229Z,87.79
2022-09-16T08:36:50.359Z,96.16
2022-09-16T08:39:59.286Z,98.75
2022-09-16T08:43:17.055Z,94.37
2022-09-16T08:46:31.393Z,77.60
2022-09-16T08:49:45.601Z,77.05
2022-09-16T08:52:58.708Z,79.36
2022-09-16T08:56:12.465Z,84.59
2022-09-16T08:59:26.398Z,88.41
2022-09-16T09:05:57.104Z,82.36
2022-09-16T09:09:16.216Z,77.98
2022-09-16T09:12:32.467Z,69.25
2022-09-16T09:15:47.546Z,71.59
2022-09-16T09:19:05.797Z,88.92
2022-09-16T09:22:23.089Z,87.58
2022-09-16T09:25:40.769Z,91.44
2022-09-16T09:29:22.343Z,100.00
2022-09-16T09:32:49.481Z,100.00
2022-09-16T09:36:12.684Z,100.00
2022-09-16T09:39:31.885Z,100.00
2022-09-16T09:42:42.846Z,94.89
2022-09-16T09:45:57.918Z,95.22
2022-09-16T09:49:15.244Z,100.00
2022-09-16T09:52:38.694Z,100.00
2022-09-16T09:55:47.702Z,74.44
2022-09-16T09:59:02.682Z,52.84
2022-09-16T10:02:17.229Z,76.51
2022-09-16T10:05:28.855Z,67.56
2022-09-16T10:08:43.181Z,75.22
2022-09-16T10:11:55.224Z,76.14
2022-09-16T10:15:04.733Z,73.86
2022-09-16T10:18:15.406Z,81.27
2022-09-16T10:21:26.581Z,95.93
2022-09-16T10:24:37.576Z,76.82
2022-09-16T10:27:56.352Z,67.55
2022-09-16T10:31:08.507Z,56.13
2022-09-16T10:34:21.923Z,71.77
2022-09-16T10:37:32.313Z,93.00
2022-09-16T10:40:41.269Z,100.00
2022-09-16T10:43:52.767Z,100.00
2022-09-16T10:47:03.440Z,100.00
2022-09-16T10:50:17.487Z,100.00
2022-09-16T10:53:32.677Z,100.00
2022-09-16T10:56:49.458Z,100.00
2022-09-16T11:00:00.682Z,100.00
2022-09-16T11:03:30.500Z,100.00
2022-09-16T11:06:53.724Z,100.00
2022-09-16T11:10:11.244Z,100.00
2022-09-16T11:13:34.003Z,91.48
2022-09-16T11:16:54.513Z,71.80
2022-09-16T11:20:13.949Z,50.16
2022-09-16T11:23:32.147Z,55.51
2022-09-16T11:26:49.720Z,43.46
2022-09-16T11:30:10.901Z,40.51
2022-09-16T11:33:26.636Z,41.73
2022-09-16T11:36:56.209Z,38.13
2022-09-16T11:40:16.963Z,41.24
2022-09-16T11:43:42.173Z,60.46
2022-09-16T11:47:00.803Z,76.05
2022-09-16T11:50:26.871Z,86.72
2022-09-16T11:53:53.303Z,91.19
2022-09-16T11:57:05.599Z,100.00
2022-09-16T12:00:18.764Z,100.00
2022-09-16T12:03:32.527Z,100.00
2022-09-16T12:06:47.701Z,100.00
2022-09-16T12:10:01.406Z,99.09
2022-09-16T12:13:15.661Z,92.49
2022-09-16T12:16:33.123Z,91.43
2022-09-16T12:19:47.940Z,95.00
2022-09-16T12:23:02.399Z,100.00
2022-09-16T12:26:14.852Z,100.00
2022-09-16T12:29:29.558Z,100.00
2022-09-16T12:32:50.844Z,70.35
2022-09-16T12:36:03.413Z,57.54
2022-09-16T12:39:12.884Z,50.40
2022-09-16T12:42:57.397Z,47.04
2022-09-16T12:46:37.409Z,47.14
2022-09-16T12:50:07.791Z,51.06
2022-09-16T12:53:33.146Z,55.01
2022-09-16T12:56:54.107Z,51.74
2022-09-16T13:00:16.002Z,47.52
2022-09-16T13:03:28.091Z,48.91
2022-09-16T13:06:40.944Z,61.94
2022-09-16T13:09:49.920Z,68.01
2022-09-16T13:13:01.620Z,71.51
2022-09-16T13:16:11.261Z,68.42
2022-09-16T13:19:47.054Z,70.49
2022-09-16T13:23:06.376Z,61.71
2022-09-16T13:26:15.763Z,53.83
2022-09-16T13:29:40.095Z,62.99
2022-09-16T13:33:00.454Z,72.51
2022-09-16T13:36:19.036Z,74.87
2022-09-16T13:39:34.011Z,81.34
2022-09-16T13:42:42.955Z,90.97
2022-09-16T13:46:02.789Z,97.29
2022-09-16T13:49:18.452Z,100.00
2022-09-16T13:52:29.571Z,97.94
2022-09-16T13:55:41.601Z,91.32
2022-09-16T13:58:57.608Z,88.45
2022-09-16T14:02:15.919Z,77.85
2022-09-16T14:05:47.476Z,75.23
2022-09-16T14:09:00.449Z,77.15
2022-09-16T14:12:17.137Z,78.77
2022-09-16T14:15:29.081Z,76.78
2022-09-16T14:18:38.238Z,77.20
2022-09-16T14:21:47.308Z,76.24
2022-09-16T14:25:06.189Z,74.52
2022-09-16T14:28:24.386Z,71.26
2022-09-16T14:31:34.581Z,75.26
2022-09-16T14:34:43.674Z,79.28
2022-09-16T14:37:56.243Z,83.85
2022-09-16T14:41:07.549Z,82.23
2022-09-16T14:44:23.855Z,76.27
2022-09-16T14:47:50.495Z,68.01
2022-09-16T14:51:02.752Z,71.85
2022-09-16T14:54:18.702Z,85.77
2022-09-16T14:57:30.261Z,89.58
2022-09-16T15:00:44.359Z,96.94
2022-09-16T15:03:55.331Z,100.00
2022-09-16T15:07:12.499Z,100.00
2022-09-16T15:10:23.959Z,100.00
2022-09-16T15:13:39.231Z,100.00
2022-09-16T15:16:51.079Z,95.30
2022-09-16T15:20:01.084Z,82.76
2022-09-16T15:23:22.224Z,75.74
2022-09-16T15:26:33.042Z,76.72
2022-09-16T15:29:50.553Z,72.77
2022-09-16T15:33:00.866Z,69.61
2022-09-16T15:36:17.783Z,67.32
2022-09-16T15:39:29.063Z,68.28
2022-09-16T15:42:38.780Z,65.31
2022-09-16T15:45:59.342Z,61.51
2022-09-16T15:49:14.664Z,65.76
2022-09-16T15:52:23.688Z,70.10
2022-09-16T15:55:36.560Z,87.21
2022-09-16T15:58:47.946Z,100.00
2022-09-16T16:01:58.493Z,100.00
2022-09-16T16:05:12.342Z,100.00
2022-09-16T16:08:40.168Z,100.00
2022-09-16T16:11:49.170Z,100.00
2022-09-16T16:14:58.716Z,100.00
2022-09-16T16:18:09.639Z,100.00
2022-09-16T16:21:21.369Z,100.00
2022-09-16T16:24:31.462Z,100.00
2022-09-16T16:27:40.582Z,100.00
2022-09-16T16:30:49.788Z,100.00
2022-09-16T16:34:00.402Z,100.00
2022-09-16T16:37:19.354Z,100.00
2022-09-16T16:40:37.331Z,100.00
2022-09-16T16:43:46.585Z,100.00
2022-09-16T16:46:56.597Z,100.00
2022-09-16T16:50:06.317Z,100.00
2022-09-16T16:53:16.639Z,100.00
2022-09-16T16:56:25.617Z,100.00
2022-09-16T16:59:34.818Z,100.00
2022-09-16T17:02:44.789Z,100.00
2022-09-16T17:05:53.771Z,100.00
2022-09-16T17:09:04.525Z,100.00
2022-09-16T17:12:13.990Z,100.00
2022-09-16T17:15:22.881Z,100.00
2022-09-16T17:18:31.856Z,100.00
2022-09-16T17:21:41.251Z,100.00
2022-09-16T17:24:51.609Z,100.00
2022-09-16T17:28:00.542Z,100.00
2022-09-16T17:31:12.963Z,100.00
2022-09-16T17:34:22.062Z,100.00
2022-09-16T17:37:31.200Z,100.00
2022-09-16T17:40:41.718Z,100.00
2022-09-16T17:43:50.735Z,100.00
2022-09-16T17:46:59.714Z,100.00
2022-09-16T17:50:10.013Z,100.00
2022-09-16T17:53:19.262Z,100.00
2022-09-16T17:56:29.766Z,100.00
2022-09-16T17:59:38.645Z,100.00
2022-09-16T18:02:47.728Z,100.00
2022-09-16T18:06:05.025Z,100.00
2022-09-16T18:09:16.306Z,100.00
2022-09-16T18:12:26.700Z,100.00
2022-09-16T18:15:35.715Z,100.00
2022-09-16T18:18:45.746Z,100.00
2022-09-16T18:21:54.977Z,100.00
2022-09-16T18:25:04.777Z,100.00
2022-09-16T18:28:15.102Z,100.00
2022-09-16T18:31:25.086Z,100.00
2022-09-16T18:34:35.214Z,100.00
2022-09-16T18:37:44.133Z,100.00
2022-09-16T18:40:53.467Z,100.00
2022-09-16T18:44:07.552Z,100.00
2022-09-16T18:47:16.645Z,100.00
2022-09-16T18:50:26.774Z,100.00
2022-09-16T18:53:35.643Z,100.00
2022-09-16T18:56:44.559Z,100.00
2022-09-16T18:59:55.065Z,100.00
2022-09-16T19:03:03.896Z,100.00
2022-09-16T19:06:12.826Z,100.00
2022-09-16T19:09:23.512Z,100.00
2022-09-16T19:12:35.944Z,100.00
2022-09-16T19:15:48.853Z,100.00
2022-09-16T19:18:58.214Z,100.00
2022-09-16T19:22:07.108Z,100.00
2022-09-16T19:25:16.151Z,100.00
2022-09-16T19:28:25.184Z,100.00
2022-09-16T19:31:36.566Z,100.00
2022-09-16T19:34:45.501Z,100.00
2022-09-16T19:37:54.911Z,100.00
2022-09-16T19:41:04.877Z,100.00
2022-09-16T19:44:15.732Z,100.00
2022-09-16T19:47:26.112Z,100.00
2022-09-16T19:50:35.154Z,100.00
2022-09-16T19:53:45.440Z,100.00
2022-09-16T19:56:54.578Z,100.00
2022-09-16T20:00:05.699Z,100.00
2022-09-16T20:03:22.044Z,100.00
2022-09-16T20:06:32.674Z,100.00
2022-09-16T20:09:41.684Z,100.00
2022-09-16T20:12:57.322Z,100.00
2022-09-16T20:16:10.034Z,100.00
2022-09-16T20:19:21.145Z,100.00
2022-09-16T20:22:30.094Z,100.00
2022-09-16T20:25:38.989Z,100.00
2022-09-16T20:28:50.186Z,100.00
2022-09-16T20:31:59.300Z,100.00
2022-09-16T20:35:10.476Z,100.00
2022-09-16T20:38:19.482Z,100.00
2022-09-16T20:41:30.184Z,100.00
2022-09-16T20:44:39.206Z,100.00
2022-09-16T20:47:52.167Z,100.00
2022-09-16T20:51:06.405Z,100.00
2022-09-16T20:54:16.808Z,100.00
2022-09-16T20:57:25.753Z,100.00
2022-09-16T21:00:34.980Z,100.00
2022-09-16T21:03:44.978Z,100.00
2022-09-16T21:06:55.390Z,100.00
2022-09-16T21:10:05.258Z,100.00
2022-09-16T21:13:14.685Z,100.00
2022-09-16T21:16:24.847Z,100.00
2022-09-16T21:19:33.783Z,100.00
2022-09-16T21:22:44.802Z,100.00
2022-09-16T21:25:54.139Z,100.00
2022-09-16T21:29:06.540Z,100.00
2022-09-16T21:32:15.518Z,100.00
2022-09-16T21:35:24.544Z,100.00
2022-09-16T21:38:35.177Z,100.00
2022-09-16T21:41:44.441Z,100.00
2022-09-16T21:44:58.027Z,100.00
2022-09-16T21:48:06.967Z,100.00
2022-09-16T21:51:17.649Z,100.00
2022-09-16T21:54:28.109Z,100.00
2022-09-16T21:57:37.011Z,100.00
2022-09-16T22:00:46.032Z,100.00
2022-09-16T22:03:56.711Z,100.00
2022-09-16T22:07:10.765Z,100.00
2022-09-16T22:10:21.521Z,100.00
2022-09-16T22:13:31.593Z,100.00
2022-09-16T22:16:41.723Z,100.00
2022-09-16T22:19:50.760Z,100.00
2022-09-16T22:22:59.720Z,100.00
2022-09-16T22:26:11.721Z,100.00
2022-09-16T22:29:20.720Z,100.00
2022-09-16T22:32:29.675Z,100.00
2022-09-16T22:35:38.644Z,100.00
2022-09-16T22:38:48.450Z,100.00
2022-09-16T22:41:58.861Z,100.00
2022-09-16T22:45:08.731Z,100.00
2022-09-16T22:48:19.005Z,100.00
2022-09-16T22:51:28.984Z,100.00
2022-09-16T22:54:37.911Z,100.00
2022-09-16T22:57:48.208Z,100.00
2022-09-16T23:01:03.221Z,100.00
2022-09-16T23:04:12.166Z,100.00
2022-09-16T23:07:21.089Z,100.00
2022-09-16T23:10:30.149Z,100.00
2022-09-16T23:13:42.562Z,100.00
2022-09-16T23:16:51.541Z,100.00
2022-09-16T23:20:00.696Z,100.00
2022-09-16T23:23:09.940Z,100.00
2022-09-16T23:26:19.998Z,100.00
2022-09-16T23:29:30.421Z,100.00
2022-09-16T23:32:39.383Z,100.00
2022-09-16T23:35:48.826Z,100.00
2022-09-16T23:38:58.621Z,100.00
2022-09-16T23:42:07.825Z,100.00
2022-09-16T23:45:18.290Z,100.00
2022-09-16T23:48:27.178Z,100.00
2022-09-16T23:51:36.678Z,100.00
2022-09-16T23:54:46.380Z,100.00
2022-09-16T23:57:55.601Z,100.00
